Terminal Aerodrome Forecast
Issued by NWS

Home | Current Version | Previous Version | Text Only | Print | Product List | Glossary On
Versions: 1 2 3 4 5 6 7 8 9 10 11 12 13 14 15
000
FTUS46 KLOX 280500 RRA
TAFSBP
TAF
KSBP 280547Z 2806/0106 31007KT P6SM SCT025 BKN040
     FM281100 VRB03KT P6SM VCSH BKN025 OVC035
     FM281500 VRB03KT 6SM -SHRA BR SCT015 OVC025
     FM281900 29009KT 6SM -SHRA BR SCT025 BKN035
     FM010400 VRB03KT P6SM VCSH OVC030=

USA.gov is the U.S. government's official web portal to all federal, state and local government web resources and services.